sensor_id;sensor_type;location;lat;lon;timestamp;P1;durP1;ratioP1;P2;durP2;ratioP2
15130;SDS011;7666;50.920;4.628;2023-04-01T00:02:25;9.07;;;1.83;;
15130;SDS011;7666;50.920;4.628;2023-04-01T00:05:11;7.10;;;1.87;;
15130;SDS011;7666;50.920;4.628;2023-04-01T00:07:57;7.67;;;1.80;;
15130;SDS011;7666;50.920;4.628;2023-04-01T00:10:43;4.27;;;1.40;;
15130;SDS011;7666;50.920;4.628;2023-04-01T00:13:29;6.00;;;1.83;;
15130;SDS011;7666;50.920;4.628;2023-04-01T00:16:15;7.43;;;2.20;;
15130;SDS011;7666;50.920;4.628;2023-04-01T00:19:01;7.13;;;1.80;;
15130;SDS011;7666;50.920;4.628;2023-04-01T00:21:48;6.57;;;1.80;;
15130;SDS011;7666;50.920;4.628;2023-04-01T00:24:34;4.97;;;1.67;;
15130;SDS011;7666;50.920;4.628;2023-04-01T00:27:20;5.20;;;2.00;;
15130;SDS011;7666;50.920;4.628;2023-04-01T00:30:06;5.60;;;2.00;;
15130;SDS011;7666;50.920;4.628;2023-04-01T00:32:53;5.47;;;1.53;;
15130;SDS011;7666;50.920;4.628;2023-04-01T00:35:39;5.47;;;2.00;;
15130;SDS011;7666;50.920;4.628;2023-04-01T00:38:25;7.23;;;1.87;;
15130;SDS011;7666;50.920;4.628;2023-04-01T00:41:12;5.43;;;2.03;;
15130;SDS011;7666;50.920;4.628;2023-04-01T00:44:14;5.53;;;1.80;;
15130;SDS011;7666;50.920;4.628;2023-04-01T00:47:08;5.90;;;1.90;;
15130;SDS011;7666;50.920;4.628;2023-04-01T00:49:54;4.03;;;1.70;;
15130;SDS011;7666;50.920;4.628;2023-04-01T00:52:40;5.50;;;1.80;;
15130;SDS011;7666;50.920;4.628;2023-04-01T00:55:28;3.73;;;1.60;;
15130;SDS011;7666;50.920;4.628;2023-04-01T00:58:18;5.57;;;1.63;;
15130;SDS011;7666;50.920;4.628;2023-04-01T01:01:09;5.77;;;1.73;;
15130;SDS011;7666;50.920;4.628;2023-04-01T01:03:55;4.90;;;1.63;;
15130;SDS011;7666;50.920;4.628;2023-04-01T01:09:45;6.00;;;1.80;;
15130;SDS011;7666;50.920;4.628;2023-04-01T01:15:59;4.13;;;1.40;;
15130;SDS011;7666;50.920;4.628;2023-04-01T01:34:02;4.87;;;1.50;;
15130;SDS011;7666;50.920;4.628;2023-04-01T01:37:08;5.40;;;1.67;;
15130;SDS011;7666;50.920;4.628;2023-04-01T01:40:03;5.30;;;1.33;;
15130;SDS011;7666;50.920;4.628;2023-04-01T01:42:53;3.37;;;1.63;;
15130;SDS011;7666;50.920;4.628;2023-04-01T01:45:44;4.10;;;1.30;;
15130;SDS011;7666;50.920;4.628;2023-04-01T01:48:34;4.03;;;1.47;;
15130;SDS011;7666;50.920;4.628;2023-04-01T01:51:21;2.20;;;1.23;;
15130;SDS011;7666;50.920;4.628;2023-04-01T01:54:12;3.37;;;1.60;;
15130;SDS011;7666;50.920;4.628;2023-04-01T01:57:01;3.63;;;1.80;;
15130;SDS011;7666;50.920;4.628;2023-04-01T01:59:56;3.10;;;1.60;;
15130;SDS011;7666;50.920;4.628;2023-04-01T02:02:49;2.97;;;1.57;;
15130;SDS011;7666;50.920;4.628;2023-04-01T02:05:36;3.13;;;1.50;;
15130;SDS011;7666;50.920;4.628;2023-04-01T02:08:24;4.10;;;1.63;;
15130;SDS011;7666;50.920;4.628;2023-04-01T02:11:32;4.17;;;1.90;;
15130;SDS011;7666;50.920;4.628;2023-04-01T02:14:29;4.70;;;1.93;;
15130;SDS011;7666;50.920;4.628;2023-04-01T02:17:27;5.90;;;2.20;;
15130;SDS011;7666;50.920;4.628;2023-04-01T02:20:16;4.43;;;2.43;;
15130;SDS011;7666;50.920;4.628;2023-04-01T02:23:06;4.17;;;2.50;;
15130;SDS011;7666;50.920;4.628;2023-04-01T02:25:53;3.70;;;2.60;;
15130;SDS011;7666;50.920;4.628;2023-04-01T02:28:40;3.40;;;2.10;;
15130;SDS011;7666;50.920;4.628;2023-04-01T02:31:28;3.00;;;2.00;;
15130;SDS011;7666;50.920;4.628;2023-04-01T02:34:15;4.80;;;2.83;;
15130;SDS011;7666;50.920;4.628;2023-04-01T02:37:01;4.50;;;2.30;;
15130;SDS011;7666;50.920;4.628;2023-04-01T02:39:48;3.60;;;2.30;;
15130;SDS011;7666;50.920;4.628;2023-04-01T02:42:34;3.43;;;2.20;;
15130;SDS011;7666;50.920;4.628;2023-04-01T02:45:20;5.90;;;2.10;;
15130;SDS011;7666;50.920;4.628;2023-04-01T02:48:06;4.43;;;1.90;;
15130;SDS011;7666;50.920;4.628;2023-04-01T02:50:52;4.87;;;2.10;;
15130;SDS011;7666;50.920;4.628;2023-04-01T02:53:38;4.00;;;1.93;;
15130;SDS011;7666;50.920;4.628;2023-04-01T02:56:25;3.67;;;2.00;;
15130;SDS011;7666;50.920;4.628;2023-04-01T02:59:11;5.27;;;2.30;;
15130;SDS011;7666;50.920;4.628;2023-04-01T03:01:57;5.10;;;2.07;;
15130;SDS011;7666;50.920;4.628;2023-04-01T03:04:43;5.63;;;2.00;;
15130;SDS011;7666;50.920;4.628;2023-04-01T03:07:29;8.13;;;2.40;;
15130;SDS011;7666;50.920;4.628;2023-04-01T03:10:15;6.57;;;2.40;;
15130;SDS011;7666;50.920;4.628;2023-04-01T03:13:02;6.77;;;1.90;;
15130;SDS011;7666;50.920;4.628;2023-04-01T03:15:48;5.47;;;2.20;;
15130;SDS011;7666;50.920;4.628;2023-04-01T03:18:34;6.93;;;2.60;;
15130;SDS011;7666;50.920;4.628;2023-04-01T03:21:21;5.57;;;2.37;;
15130;SDS011;7666;50.920;4.628;2023-04-01T03:24:08;8.00;;;2.63;;
15130;SDS011;7666;50.920;4.628;2023-04-01T03:26:54;7.33;;;2.70;;
15130;SDS011;7666;50.920;4.628;2023-04-01T03:29:40;6.17;;;2.30;;
15130;SDS011;7666;50.920;4.628;2023-04-01T03:32:26;6.20;;;3.00;;
15130;SDS011;7666;50.920;4.628;2023-04-01T03:35:13;7.07;;;3.10;;
15130;SDS011;7666;50.920;4.628;2023-04-01T03:37:59;6.27;;;3.13;;
15130;SDS011;7666;50.920;4.628;2023-04-01T03:40:45;5.80;;;3.03;;
15130;SDS011;7666;50.920;4.628;2023-04-01T03:43:31;8.83;;;4.00;;
15130;SDS011;7666;50.920;4.628;2023-04-01T03:46:19;7.23;;;3.67;;
15130;SDS011;7666;50.920;4.628;2023-04-01T03:49:09;5.47;;;3.30;;
15130;SDS011;7666;50.920;4.628;2023-04-01T03:51:56;8.37;;;4.13;;
15130;SDS011;7666;50.920;4.628;2023-04-01T03:54:42;7.63;;;4.10;;
15130;SDS011;7666;50.920;4.628;2023-04-01T03:57:30;9.10;;;4.37;;
15130;SDS011;7666;50.920;4.628;2023-04-01T04:00:16;7.23;;;4.67;;
15130;SDS011;7666;50.920;4.628;2023-04-01T04:03:03;10.33;;;5.20;;
15130;SDS011;7666;50.920;4.628;2023-04-01T04:05:49;7.80;;;5.13;;
15130;SDS011;7666;50.920;4.628;2023-04-01T04:08:35;9.73;;;6.00;;
15130;SDS011;7666;50.920;4.628;2023-04-01T04:11:21;10.73;;;5.80;;
15130;SDS011;7666;50.920;4.628;2023-04-01T04:14:08;10.87;;;5.77;;
15130;SDS011;7666;50.920;4.628;2023-04-01T04:16:54;11.70;;;5.70;;
15130;SDS011;7666;50.920;4.628;2023-04-01T04:19:40;10.70;;;5.63;;
15130;SDS011;7666;50.920;4.628;2023-04-01T04:22:26;11.20;;;6.13;;
15130;SDS011;7666;50.920;4.628;2023-04-01T04:25:12;12.87;;;6.17;;
15130;SDS011;7666;50.920;4.628;2023-04-01T04:27:58;13.33;;;7.30;;
15130;SDS011;7666;50.920;4.628;2023-04-01T04:30:44;10.03;;;6.10;;
15130;SDS011;7666;50.920;4.628;2023-04-01T04:33:30;12.60;;;6.63;;
15130;SDS011;7666;50.920;4.628;2023-04-01T04:36:16;9.33;;;6.50;;
15130;SDS011;7666;50.920;4.628;2023-04-01T04:39:03;10.37;;;6.40;;
15130;SDS011;7666;50.920;4.628;2023-04-01T04:41:49;10.50;;;6.20;;
15130;SDS011;7666;50.920;4.628;2023-04-01T04:44:35;9.37;;;5.60;;
15130;SDS011;7666;50.920;4.628;2023-04-01T04:47:21;6.80;;;4.60;;
15130;SDS011;7666;50.920;4.628;2023-04-01T04:50:08;7.90;;;5.10;;
15130;SDS011;7666;50.920;4.628;2023-04-01T04:52:54;5.77;;;4.77;;
15130;SDS011;7666;50.920;4.628;2023-04-01T04:55:44;8.20;;;5.23;;
15130;SDS011;7666;50.920;4.628;2023-04-01T04:58:31;5.87;;;4.57;;
15130;SDS011;7666;50.920;4.628;2023-04-01T05:01:17;11.50;;;5.37;;
15130;SDS011;7666;50.920;4.628;2023-04-01T05:04:04;6.77;;;4.33;;
15130;SDS011;7666;50.920;4.628;2023-04-01T05:06:50;6.97;;;4.23;;
15130;SDS011;7666;50.920;4.628;2023-04-01T05:09:37;6.33;;;3.60;;
15130;SDS011;7666;50.920;4.628;2023-04-01T05:12:23;5.40;;;4.17;;
15130;SDS011;7666;50.920;4.628;2023-04-01T05:15:09;5.63;;;3.67;;
15130;SDS011;7666;50.920;4.628;2023-04-01T05:17:55;4.30;;;3.53;;
15130;SDS011;7666;50.920;4.628;2023-04-01T05:20:51;4.20;;;2.73;;
15130;SDS011;7666;50.920;4.628;2023-04-01T05:23:38;4.07;;;2.50;;
15130;SDS011;7666;50.920;4.628;2023-04-01T05:26:24;3.30;;;2.43;;
15130;SDS011;7666;50.920;4.628;2023-04-01T05:29:10;3.43;;;2.40;;
15130;SDS011;7666;50.920;4.628;2023-04-01T05:31:57;3.10;;;2.63;;
15130;SDS011;7666;50.920;4.628;2023-04-01T05:34:43;3.40;;;2.80;;
15130;SDS011;7666;50.920;4.628;2023-04-01T05:37:29;3.87;;;2.70;;
15130;SDS011;7666;50.920;4.628;2023-04-01T05:40:16;2.57;;;2.30;;
15130;SDS011;7666;50.920;4.628;2023-04-01T05:43:02;2.07;;;1.60;;
15130;SDS011;7666;50.920;4.628;2023-04-01T05:45:48;1.50;;;1.40;;
15130;SDS011;7666;50.920;4.628;2023-04-01T05:48:34;1.87;;;1.30;;
15130;SDS011;7666;50.920;4.628;2023-04-01T05:51:21;1.30;;;1.20;;
15130;SDS011;7666;50.920;4.628;2023-04-01T05:54:07;1.73;;;1.60;;
15130;SDS011;7666;50.920;4.628;2023-04-01T05:56:53;1.60;;;1.40;;
15130;SDS011;7666;50.920;4.628;2023-04-01T05:59:39;1.83;;;1.53;;
15130;SDS011;7666;50.920;4.628;2023-04-01T06:02:25;1.97;;;1.87;;
15130;SDS011;7666;50.920;4.628;2023-04-01T06:07:59;3.50;;;2.93;;
15130;SDS011;7666;50.920;4.628;2023-04-01T06:32:31;5.53;;;3.93;;
15130;SDS011;7666;50.920;4.628;2023-04-01T06:35:28;8.17;;;4.20;;
15130;SDS011;7666;50.920;4.628;2023-04-01T06:41:31;5.70;;;3.90;;
15130;SDS011;7666;50.920;4.628;2023-04-01T06:50:48;4.27;;;2.77;;
15130;SDS011;7666;50.920;4.628;2023-04-01T06:53:47;2.60;;;2.40;;
15130;SDS011;7666;50.920;4.628;2023-04-01T06:56:44;3.63;;;2.60;;
15130;SDS011;7666;50.920;4.628;2023-04-01T06:59:32;3.50;;;2.47;;
15130;SDS011;7666;50.920;4.628;2023-04-01T07:05:17;3.23;;;2.30;;
15130;SDS011;7666;50.920;4.628;2023-04-01T07:08:04;2.60;;;2.17;;
15130;SDS011;7666;50.920;4.628;2023-04-01T07:11:04;6.83;;;2.80;;
15130;SDS011;7666;50.920;4.628;2023-04-01T07:13:55;2.60;;;2.27;;
15130;SDS011;7666;50.920;4.628;2023-04-01T07:23:24;2.20;;;2.00;;
15130;SDS011;7666;50.920;4.628;2023-04-01T07:26:24;2.50;;;1.60;;
15130;SDS011;7666;50.920;4.628;2023-04-01T07:29:11;2.37;;;1.50;;
15130;SDS011;7666;50.920;4.628;2023-04-01T07:51:08;1.47;;;0.90;;
15130;SDS011;7666;50.920;4.628;2023-04-01T07:57:09;1.37;;;0.70;;
15130;SDS011;7666;50.920;4.628;2023-04-01T08:00:21;1.00;;;0.80;;
15130;SDS011;7666;50.920;4.628;2023-04-01T08:09:21;0.70;;;0.70;;
15130;SDS011;7666;50.920;4.628;2023-04-01T08:15:39;1.67;;;0.83;;
15130;SDS011;7666;50.920;4.628;2023-04-01T08:21:57;0.87;;;0.70;;
15130;SDS011;7666;50.920;4.628;2023-04-01T08:24:49;2.23;;;0.80;;
15130;SDS011;7666;50.920;4.628;2023-04-01T08:27:39;0.60;;;0.60;;
15130;SDS011;7666;50.920;4.628;2023-04-01T08:33:28;0.60;;;0.60;;
15130;SDS011;7666;50.920;4.628;2023-04-01T08:36:29;2.07;;;0.90;;
15130;SDS011;7666;50.920;4.628;2023-04-01T08:49:14;3.13;;;0.70;;
15130;SDS011;7666;50.920;4.628;2023-04-01T09:08:26;1.77;;;0.70;;
15130;SDS011;7666;50.920;4.628;2023-04-01T09:30:59;0.40;;;0.40;;
15130;SDS011;7666;50.920;4.628;2023-04-01T09:34:00;0.70;;;0.70;;
15130;SDS011;7666;50.920;4.628;2023-04-01T09:40:14;0.87;;;0.80;;
15130;SDS011;7666;50.920;4.628;2023-04-01T09:43:16;0.77;;;0.77;;
15130;SDS011;7666;50.920;4.628;2023-04-01T09:49:57;0.70;;;0.70;;
15130;SDS011;7666;50.920;4.628;2023-04-01T09:56:01;2.37;;;1.70;;
15130;SDS011;7666;50.920;4.628;2023-04-01T10:08:39;2.60;;;2.27;;
15130;SDS011;7666;50.920;4.628;2023-04-01T10:21:54;1.80;;;1.47;;
15130;SDS011;7666;50.920;4.628;2023-04-01T10:50:00;4.77;;;1.67;;
15130;SDS011;7666;50.920;4.628;2023-04-01T10:53:16;4.07;;;1.60;;
15130;SDS011;7666;50.920;4.628;2023-04-01T10:56:34;2.30;;;1.40;;
15130;SDS011;7666;50.920;4.628;2023-04-01T10:59:36;1.90;;;1.13;;
15130;SDS011;7666;50.920;4.628;2023-04-01T11:30:53;0.83;;;0.80;;
15130;SDS011;7666;50.920;4.628;2023-04-01T11:34:44;1.50;;;0.73;;
15130;SDS011;7666;50.920;4.628;2023-04-01T11:40:29;0.80;;;0.80;;
15130;SDS011;7666;50.920;4.628;2023-04-01T11:53:23;1.50;;;1.00;;
15130;SDS011;7666;50.920;4.628;2023-04-01T11:56:26;1.17;;;1.07;;
15130;SDS011;7666;50.920;4.628;2023-04-01T12:00:05;2.07;;;0.87;;
15130;SDS011;7666;50.920;4.628;2023-04-01T12:03:22;1.00;;;0.87;;
15130;SDS011;7666;50.920;4.628;2023-04-01T12:13:03;0.60;;;0.60;;
15130;SDS011;7666;50.920;4.628;2023-04-01T12:16:16;0.80;;;0.77;;
15130;SDS011;7666;50.920;4.628;2023-04-01T12:28:44;0.60;;;0.50;;
15130;SDS011;7666;50.920;4.628;2023-04-01T12:32:01;1.10;;;0.70;;
15130;SDS011;7666;50.920;4.628;2023-04-01T12:53:42;0.77;;;0.77;;
15130;SDS011;7666;50.920;4.628;2023-04-01T12:57:07;0.80;;;0.80;;
15130;SDS011;7666;50.920;4.628;2023-04-01T13:00:20;0.90;;;0.70;;
15130;SDS011;7666;50.920;4.628;2023-04-01T13:06:28;0.70;;;0.70;;
15130;SDS011;7666;50.920;4.628;2023-04-01T13:12:30;1.00;;;0.80;;
15130;SDS011;7666;50.920;4.628;2023-04-01T13:15:54;0.70;;;0.70;;
15130;SDS011;7666;50.920;4.628;2023-04-01T13:18:54;1.33;;;0.80;;
15130;SDS011;7666;50.920;4.628;2023-04-01T13:24:59;0.77;;;0.70;;
15130;SDS011;7666;50.920;4.628;2023-04-01T13:28:16;0.90;;;0.90;;
15130;SDS011;7666;50.920;4.628;2023-04-01T13:34:23;0.87;;;0.70;;
15130;SDS011;7666;50.920;4.628;2023-04-01T13:40:43;1.00;;;0.70;;
15130;SDS011;7666;50.920;4.628;2023-04-01T13:43:45;1.10;;;0.77;;
15130;SDS011;7666;50.920;4.628;2023-04-01T13:46:54;0.60;;;0.60;;
15130;SDS011;7666;50.920;4.628;2023-04-01T13:55:59;1.33;;;0.67;;
15130;SDS011;7666;50.920;4.628;2023-04-01T14:02:03;0.80;;;0.63;;
15130;SDS011;7666;50.920;4.628;2023-04-01T14:05:14;0.70;;;0.70;;
15130;SDS011;7666;50.920;4.628;2023-04-01T14:08:45;0.80;;;0.80;;
15130;SDS011;7666;50.920;4.628;2023-04-01T14:11:49;0.60;;;0.60;;
15130;SDS011;7666;50.920;4.628;2023-04-01T14:21:20;2.00;;;1.50;;
15130;SDS011;7666;50.920;4.628;2023-04-01T14:24:20;3.17;;;2.20;;
15130;SDS011;7666;50.920;4.628;2023-04-01T14:30:20;2.67;;;2.47;;
15130;SDS011;7666;50.920;4.628;2023-04-01T14:33:32;2.90;;;2.50;;
15130;SDS011;7666;50.920;4.628;2023-04-01T14:39:34;3.20;;;2.63;;
15130;SDS011;7666;50.920;4.628;2023-04-01T14:42:41;3.70;;;3.00;;
15130;SDS011;7666;50.920;4.628;2023-04-01T14:49:04;3.47;;;3.13;;
15130;SDS011;7666;50.920;4.628;2023-04-01T14:52:16;2.67;;;2.47;;
15130;SDS011;7666;50.920;4.628;2023-04-01T14:55:21;2.60;;;2.40;;
15130;SDS011;7666;50.920;4.628;2023-04-01T14:58:15;2.70;;;2.50;;
15130;SDS011;7666;50.920;4.628;2023-04-01T15:13:26;2.67;;;1.90;;
15130;SDS011;7666;50.920;4.628;2023-04-01T15:16:31;1.60;;;1.50;;
15130;SDS011;7666;50.920;4.628;2023-04-01T15:19:24;2.07;;;1.20;;
15130;SDS011;7666;50.920;4.628;2023-04-01T15:31:22;1.60;;;1.17;;
15130;SDS011;7666;50.920;4.628;2023-04-01T15:37:21;1.37;;;1.20;;
15130;SDS011;7666;50.920;4.628;2023-04-01T15:40:20;1.17;;;1.07;;
15130;SDS011;7666;50.920;4.628;2023-04-01T15:43:20;2.37;;;1.30;;
15130;SDS011;7666;50.920;4.628;2023-04-01T15:49:36;1.93;;;1.27;;
15130;SDS011;7666;50.920;4.628;2023-04-01T15:52:39;1.67;;;1.20;;
15130;SDS011;7666;50.920;4.628;2023-04-01T15:55:31;2.17;;;1.40;;
15130;SDS011;7666;50.920;4.628;2023-04-01T16:01:44;3.57;;;1.53;;
15130;SDS011;7666;50.920;4.628;2023-04-01T16:04:51;1.30;;;1.20;;
15130;SDS011;7666;50.920;4.628;2023-04-01T16:13:58;2.13;;;1.37;;
15130;SDS011;7666;50.920;4.628;2023-04-01T16:26:47;2.13;;;1.30;;
15130;SDS011;7666;50.920;4.628;2023-04-01T16:32:31;1.27;;;1.10;;
15130;SDS011;7666;50.920;4.628;2023-04-01T16:43:55;2.43;;;2.03;;
15130;SDS011;7666;50.920;4.628;2023-04-01T16:46:50;3.33;;;2.00;;
15130;SDS011;7666;50.920;4.628;2023-04-01T16:49:48;2.37;;;1.90;;
15130;SDS011;7666;50.920;4.628;2023-04-01T16:56:22;3.73;;;2.30;;
15130;SDS011;7666;50.920;4.628;2023-04-01T16:59:14;2.53;;;2.23;;
15130;SDS011;7666;50.920;4.628;2023-04-01T17:02:13;3.57;;;2.70;;
15130;SDS011;7666;50.920;4.628;2023-04-01T17:05:06;3.17;;;2.90;;
15130;SDS011;7666;50.920;4.628;2023-04-01T17:10:53;4.60;;;4.10;;
15130;SDS011;7666;50.920;4.628;2023-04-01T17:13:48;6.27;;;4.67;;
15130;SDS011;7666;50.920;4.628;2023-04-01T17:17:03;5.57;;;5.03;;
15130;SDS011;7666;50.920;4.628;2023-04-01T17:20:18;4.57;;;4.17;;
15130;SDS011;7666;50.920;4.628;2023-04-01T17:23:14;5.50;;;5.00;;
15130;SDS011;7666;50.920;4.628;2023-04-01T17:29:05;4.80;;;4.40;;
15130;SDS011;7666;50.920;4.628;2023-04-01T17:32:03;4.80;;;4.40;;
15130;SDS011;7666;50.920;4.628;2023-04-01T17:41:31;4.27;;;3.83;;
15130;SDS011;7666;50.920;4.628;2023-04-01T18:00:03;3.90;;;3.60;;
15130;SDS011;7666;50.920;4.628;2023-04-01T18:03:28;4.33;;;3.93;;
15130;SDS011;7666;50.920;4.628;2023-04-01T18:09:30;4.37;;;3.80;;
15130;SDS011;7666;50.920;4.628;2023-04-01T18:18:26;4.73;;;4.33;;
15130;SDS011;7666;50.920;4.628;2023-04-01T18:24:30;6.83;;;4.63;;
15130;SDS011;7666;50.920;4.628;2023-04-01T18:27:29;5.77;;;5.13;;
15130;SDS011;7666;50.920;4.628;2023-04-01T18:30:27;5.07;;;4.60;;
15130;SDS011;7666;50.920;4.628;2023-04-01T18:33:18;5.30;;;4.90;;
15130;SDS011;7666;50.920;4.628;2023-04-01T18:36:35;5.70;;;5.20;;
15130;SDS011;7666;50.920;4.628;2023-04-01T18:39:33;5.03;;;4.63;;
15130;SDS011;7666;50.920;4.628;2023-04-01T18:45:46;5.00;;;4.60;;
15130;SDS011;7666;50.920;4.628;2023-04-01T18:52:23;5.33;;;4.83;;
15130;SDS011;7666;50.920;4.628;2023-04-01T18:55:22;6.90;;;5.20;;
15130;SDS011;7666;50.920;4.628;2023-04-01T18:58:20;6.73;;;5.23;;
15130;SDS011;7666;50.920;4.628;2023-04-01T19:01:16;6.73;;;5.40;;
15130;SDS011;7666;50.920;4.628;2023-04-01T19:13:42;8.20;;;7.00;;
15130;SDS011;7666;50.920;4.628;2023-04-01T19:17:02;7.47;;;6.73;;
15130;SDS011;7666;50.920;4.628;2023-04-01T19:20:09;8.80;;;6.90;;
15130;SDS011;7666;50.920;4.628;2023-04-01T19:26:11;8.80;;;7.60;;
15130;SDS011;7666;50.920;4.628;2023-04-01T19:35:33;9.77;;;7.47;;
15130;SDS011;7666;50.920;4.628;2023-04-01T19:38:41;10.93;;;7.73;;
15130;SDS011;7666;50.920;4.628;2023-04-01T19:41:46;11.07;;;7.60;;
15130;SDS011;7666;50.920;4.628;2023-04-01T19:45:18;10.13;;;7.77;;
15130;SDS011;7666;50.920;4.628;2023-04-01T19:55:02;10.63;;;9.00;;
15130;SDS011;7666;50.920;4.628;2023-04-01T19:58:28;10.67;;;8.43;;
15130;SDS011;7666;50.920;4.628;2023-04-01T20:04:54;9.83;;;8.73;;
15130;SDS011;7666;50.920;4.628;2023-04-01T20:07:43;10.13;;;8.43;;
15130;SDS011;7666;50.920;4.628;2023-04-01T20:13:51;10.50;;;8.77;;
15130;SDS011;7666;50.920;4.628;2023-04-01T20:17:11;12.07;;;8.60;;
15130;SDS011;7666;50.920;4.628;2023-04-01T20:25:57;12.73;;;9.77;;
15130;SDS011;7666;50.920;4.628;2023-04-01T20:35:01;14.60;;;11.47;;
15130;SDS011;7666;50.920;4.628;2023-04-01T20:41:21;16.43;;;13.10;;
15130;SDS011;7666;50.920;4.628;2023-04-01T20:44:12;21.20;;;15.13;;
15130;SDS011;7666;50.920;4.628;2023-04-01T21:02:20;27.53;;;19.43;;
15130;SDS011;7666;50.920;4.628;2023-04-01T21:39:11;18.53;;;14.13;;
15130;SDS011;7666;50.920;4.628;2023-04-01T21:45:12;13.50;;;12.10;;
15130;SDS011;7666;50.920;4.628;2023-04-01T21:54:06;16.07;;;14.47;;
15130;SDS011;7666;50.920;4.628;2023-04-01T21:57:17;16.70;;;14.80;;
15130;SDS011;7666;50.920;4.628;2023-04-01T22:00:31;18.67;;;16.77;;
15130;SDS011;7666;50.920;4.628;2023-04-01T22:03:26;18.40;;;16.50;;
15130;SDS011;7666;50.920;4.628;2023-04-01T22:09:31;19.97;;;17.97;;
15130;SDS011;7666;50.920;4.628;2023-04-01T22:12:36;20.43;;;18.33;;
15130;SDS011;7666;50.920;4.628;2023-04-01T22:15:48;20.63;;;18.57;;
15130;SDS011;7666;50.920;4.628;2023-04-01T22:19:04;21.27;;;19.07;;
15130;SDS011;7666;50.920;4.628;2023-04-01T22:33:50;21.17;;;19.07;;
15130;SDS011;7666;50.920;4.628;2023-04-01T22:37:22;19.50;;;17.70;;
15130;SDS011;7666;50.920;4.628;2023-04-01T22:49:48;19.10;;;17.33;;
15130;SDS011;7666;50.920;4.628;2023-04-01T22:52:43;18.00;;;16.30;;
15130;SDS011;7666;50.920;4.628;2023-04-01T22:55:33;18.83;;;17.03;;
15130;SDS011;7666;50.920;4.628;2023-04-01T22:58:30;19.27;;;17.47;;
15130;SDS011;7666;50.920;4.628;2023-04-01T23:01:28;18.67;;;16.87;;
15130;SDS011;7666;50.920;4.628;2023-04-01T23:04:21;18.77;;;16.87;;
15130;SDS011;7666;50.920;4.628;2023-04-01T23:07:38;17.97;;;16.17;;
15130;SDS011;7666;50.920;4.628;2023-04-01T23:13:32;16.17;;;14.60;;
15130;SDS011;7666;50.920;4.628;2023-04-01T23:16:28;17.10;;;15.40;;
15130;SDS011;7666;50.920;4.628;2023-04-01T23:19:23;16.97;;;15.33;;
15130;SDS011;7666;50.920;4.628;2023-04-01T23:22:31;17.53;;;15.90;;
15130;SDS011;7666;50.920;4.628;2023-04-01T23:28:48;21.03;;;18.70;;
15130;SDS011;7666;50.920;4.628;2023-04-01T23:31:42;21.97;;;19.77;;
15130;SDS011;7666;50.920;4.628;2023-04-01T23:34:30;21.80;;;19.70;;
15130;SDS011;7666;50.920;4.628;2023-04-01T23:37:20;21.47;;;19.37;;
15130;SDS011;7666;50.920;4.628;2023-04-01T23:40:10;20.77;;;18.57;;
15130;SDS011;7666;50.920;4.628;2023-04-01T23:42:58;21.20;;;19.00;;
15130;SDS011;7666;50.920;4.628;2023-04-01T23:45:45;20.33;;;18.40;;
15130;SDS011;7666;50.920;4.628;2023-04-01T23:48:41;19.80;;;17.90;;
15130;SDS011;7666;50.920;4.628;2023-04-01T23:51:35;19.63;;;17.63;;
15130;SDS011;7666;50.920;4.628;2023-04-01T23:54:38;21.33;;;19.03;;
15130;SDS011;7666;50.920;4.628;2023-04-01T23:57:37;21.10;;;18.97;;
